sensor_id;sensor_type;location;lat;lon;timestamp;pressure;altitude;pressure_sealevel;temperature
69857;BMP280;57147;53.582;10.112;2022-12-16T00:04:06;100921.03;;;-1.57
69857;BMP280;57147;53.582;10.112;2022-12-16T00:09:09;100923.44;;;-1.62
69857;BMP280;57147;53.582;10.112;2022-12-16T00:14:10;100926.84;;;-1.68
69857;BMP280;57147;53.582;10.112;2022-12-16T00:19:11;100934.31;;;-1.51
69857;BMP280;57147;53.582;10.112;2022-12-16T00:24:14;100944.66;;;-1.65
69857;BMP280;57147;53.582;10.112;2022-12-16T00:29:15;100943.84;;;-1.72
69857;BMP280;57147;53.582;10.112;2022-12-16T00:34:15;100944.09;;;-1.54
69857;BMP280;57147;53.582;10.112;2022-12-16T00:39:19;100941.91;;;-1.43
69857;BMP280;57147;53.582;10.112;2022-12-16T00:44:19;100946.94;;;-1.35
69857;BMP280;57147;53.582;10.112;2022-12-16T00:49:20;100944.53;;;-1.37
69857;BMP280;57147;53.582;10.112;2022-12-16T00:54:23;100942.94;;;-1.38
69857;BMP280;57147;53.582;10.112;2022-12-16T00:59:23;100960.56;;;-1.33
69857;BMP280;57147;53.582;10.112;2022-12-16T01:04:27;100958.97;;;-1.34
69857;BMP280;57147;53.582;10.112;2022-12-16T01:09:30;100946.94;;;-1.35
69857;BMP280;57147;53.582;10.112;2022-12-16T01:14:31;100961.75;;;-1.42
69857;BMP280;57147;53.582;10.112;2022-12-16T01:19:31;100956.94;;;-1.45
69857;BMP280;57147;53.582;10.112;2022-12-16T01:24:35;100974.59;;;-1.34
69857;BMP280;57147;53.582;10.112;2022-12-16T01:29:35;100976.19;;;-1.40
69857;BMP280;57147;53.582;10.112;2022-12-16T01:34:36;100990.19;;;-1.41
69857;BMP280;57147;53.582;10.112;2022-12-16T01:39:39;100998.59;;;-1.45
69857;BMP280;57147;53.582;10.112;2022-12-16T01:44:41;101000.16;;;-1.58
69857;BMP280;57147;53.582;10.112;2022-12-16T01:49:45;100996.13;;;-1.60
69857;BMP280;57147;53.582;10.112;2022-12-16T01:54:53;100987.69;;;-1.69
69857;BMP280;57147;53.582;10.112;2022-12-16T01:59:56;100987.69;;;-1.69
69857;BMP280;57147;53.582;10.112;2022-12-16T02:04:56;100990.91;;;-1.67
69857;BMP280;57147;53.582;10.112;2022-12-16T02:10:00;100986.50;;;-1.73
69857;BMP280;57147;53.582;10.112;2022-12-16T02:15:21;100979.59;;;-2.07
69857;BMP280;57147;53.582;10.112;2022-12-16T02:26:17;100993.13;;;-2.25
69857;BMP280;57147;53.582;10.112;2022-12-16T02:31:28;100987.13;;;-2.25
69857;BMP280;57147;53.582;10.112;2022-12-16T02:36:42;100987.47;;;-2.35
69857;BMP280;57147;53.582;10.112;2022-12-16T02:41:50;100984.56;;;-2.53
69857;BMP280;57147;53.582;10.112;2022-12-16T02:46:55;100996.72;;;-2.82
69857;BMP280;57147;53.582;10.112;2022-12-16T02:51:58;100987.25;;;-2.96
69857;BMP280;57147;53.582;10.112;2022-12-16T02:57:12;100987.38;;;-3.04
69857;BMP280;57147;53.582;10.112;2022-12-16T03:02:23;100989.72;;;-3.09
69857;BMP280;57147;53.582;10.112;2022-12-16T03:07:26;100984.03;;;-3.19
69857;BMP280;57147;53.582;10.112;2022-12-16T03:12:27;100991.44;;;-3.37
69857;BMP280;57147;53.582;10.112;2022-12-16T03:17:31;100996.31;;;-3.49
69857;BMP280;57147;53.582;10.112;2022-12-16T03:22:33;101003.75;;;-3.61
69857;BMP280;57147;53.582;10.112;2022-12-16T03:27:44;100993.50;;;-3.69
69857;BMP280;57147;53.582;10.112;2022-12-16T03:32:51;101002.53;;;-3.80
69857;BMP280;57147;53.582;10.112;2022-12-16T03:37:53;101012.94;;;-3.94
69857;BMP280;57147;53.582;10.112;2022-12-16T03:42:56;100990.59;;;-3.95
69857;BMP280;57147;53.582;10.112;2022-12-16T03:47:59;101002.84;;;-4.19
69857;BMP280;57147;53.582;10.112;2022-12-16T03:53:00;100944.19;;;-4.49
69857;BMP280;57147;53.582;10.112;2022-12-16T03:58:01;101009.44;;;-4.31
69857;BMP280;57147;53.582;10.112;2022-12-16T04:03:04;101002.38;;;-4.37
69857;BMP280;57147;53.582;10.112;2022-12-16T04:08:05;101025.44;;;-4.27
69857;BMP280;57147;53.582;10.112;2022-12-16T04:13:07;101028.56;;;-4.32
69857;BMP280;57147;53.582;10.112;2022-12-16T04:18:13;101034.13;;;-4.35
69857;BMP280;57147;53.582;10.112;2022-12-16T04:23:14;101041.19;;;-4.29
69857;BMP280;57147;53.582;10.112;2022-12-16T04:28:14;101053.00;;;-4.49
69857;BMP280;57147;53.582;10.112;2022-12-16T04:33:18;101055.31;;;-4.54
69857;BMP280;57147;53.582;10.112;2022-12-16T04:38:18;101059.94;;;-4.64
69857;BMP280;57147;53.582;10.112;2022-12-16T04:43:19;101061.56;;;-4.63
69857;BMP280;57147;53.582;10.112;2022-12-16T04:48:22;101065.50;;;-4.67
69857;BMP280;57147;53.582;10.112;2022-12-16T04:53:23;101065.03;;;-4.71
69857;BMP280;57147;53.582;10.112;2022-12-16T04:58:24;101060.78;;;-4.87
69857;BMP280;57147;53.582;10.112;2022-12-16T05:03:28;101066.31;;;-4.90
69857;BMP280;57147;53.582;10.112;2022-12-16T05:08:28;101070.09;;;-4.78
69857;BMP280;57147;53.582;10.112;2022-12-16T05:13:29;101047.66;;;-4.85
69857;BMP280;57147;53.582;10.112;2022-12-16T05:18:32;101066.53;;;-4.77
69857;BMP280;57147;53.582;10.112;2022-12-16T05:23:33;101074.31;;;-4.77
69857;BMP280;57147;53.582;10.112;2022-12-16T05:28:33;101076.19;;;-4.70
69857;BMP280;57147;53.582;10.112;2022-12-16T05:33:36;101081.88;;;-4.67
69857;BMP280;57147;53.582;10.112;2022-12-16T05:38:37;101073.09;;;-4.66
69857;BMP280;57147;53.582;10.112;2022-12-16T05:43:38;101086.44;;;-4.77
69857;BMP280;57147;53.582;10.112;2022-12-16T05:48:41;101106.16;;;-4.68
69857;BMP280;57147;53.582;10.112;2022-12-16T05:53:41;101096.91;;;-4.70
69857;BMP280;57147;53.582;10.112;2022-12-16T05:58:42;101094.19;;;-4.54
69857;BMP280;57147;53.582;10.112;2022-12-16T06:03:45;101116.72;;;-4.55
69857;BMP280;57147;53.582;10.112;2022-12-16T06:08:46;101121.53;;;-4.52
69857;BMP280;57147;53.582;10.112;2022-12-16T06:13:46;101110.84;;;-4.71
69857;BMP280;57147;53.582;10.112;2022-12-16T06:18:49;101138.66;;;-4.65
69857;BMP280;57147;53.582;10.112;2022-12-16T06:23:50;101138.13;;;-4.61
69857;BMP280;57147;53.582;10.112;2022-12-16T06:28:51;101131.25;;;-4.68
69857;BMP280;57147;53.582;10.112;2022-12-16T06:33:54;101095.50;;;-5.04
69857;BMP280;57147;53.582;10.112;2022-12-16T06:38:54;101155.63;;;-4.63
69857;BMP280;57147;53.582;10.112;2022-12-16T06:43:55;101174.19;;;-4.51
69857;BMP280;57147;53.582;10.112;2022-12-16T06:48:58;101181.56;;;-4.40
69857;BMP280;57147;53.582;10.112;2022-12-16T06:53:59;101201.38;;;-4.01
69857;BMP280;57147;53.582;10.112;2022-12-16T06:58:59;101199.06;;;-3.96
69857;BMP280;57147;53.582;10.112;2022-12-16T07:04:03;101202.47;;;-3.96
69857;BMP280;57147;53.582;10.112;2022-12-16T07:09:03;101205.16;;;-3.89
69857;BMP280;57147;53.582;10.112;2022-12-16T07:14:04;101214.56;;;-3.88
69857;BMP280;57147;53.582;10.112;2022-12-16T07:19:07;101199.97;;;-3.89
69857;BMP280;57147;53.582;10.112;2022-12-16T07:24:08;101229.97;;;-3.72
69857;BMP280;57147;53.582;10.112;2022-12-16T07:29:08;101237.03;;;-3.66
69857;BMP280;57147;53.582;10.112;2022-12-16T07:34:11;101242.84;;;-3.79
69857;BMP280;57147;53.582;10.112;2022-12-16T07:39:12;101254.69;;;-3.61
69857;BMP280;57147;53.582;10.112;2022-12-16T07:44:13;101249.72;;;-3.48
69857;BMP280;57147;53.582;10.112;2022-12-16T07:49:16;101246.94;;;-3.47
69857;BMP280;57147;53.582;10.112;2022-12-16T07:54:16;101264.13;;;-3.45
69857;BMP280;57147;53.582;10.112;2022-12-16T07:59:17;101290.13;;;-3.54
69857;BMP280;57147;53.582;10.112;2022-12-16T08:04:20;101266.47;;;-3.73
69857;BMP280;57147;53.582;10.112;2022-12-16T08:09:21;101299.31;;;-3.43
69857;BMP280;57147;53.582;10.112;2022-12-16T08:14:22;101301.56;;;-3.25
69857;BMP280;57147;53.582;10.112;2022-12-16T08:19:25;101312.69;;;-3.02
69857;BMP280;57147;53.582;10.112;2022-12-16T08:24:26;101331.84;;;-2.73
69857;BMP280;57147;53.582;10.112;2022-12-16T08:29:26;101319.00;;;-2.60
69857;BMP280;57147;53.582;10.112;2022-12-16T08:34:29;101335.84;;;-2.41
69857;BMP280;57147;53.582;10.112;2022-12-16T08:39:30;101315.38;;;-2.30
69857;BMP280;57147;53.582;10.112;2022-12-16T08:44:31;101362.44;;;-2.03
69857;BMP280;57147;53.582;10.112;2022-12-16T08:49:34;101355.75;;;-1.91
69857;BMP280;57147;53.582;10.112;2022-12-16T08:54:35;101378.56;;;-1.72
69857;BMP280;57147;53.582;10.112;2022-12-16T08:59:36;101363.75;;;-1.71
69857;BMP280;57147;53.582;10.112;2022-12-16T09:04:39;101389.09;;;-1.59
69857;BMP280;57147;53.582;10.112;2022-12-16T09:09:40;101393.22;;;-1.49
69857;BMP280;57147;53.582;10.112;2022-12-16T09:14:41;101401.91;;;-1.42
69857;BMP280;57147;53.582;10.112;2022-12-16T09:19:45;101411.31;;;-1.41
69857;BMP280;57147;53.582;10.112;2022-12-16T09:24:45;101408.84;;;-1.49
69857;BMP280;57147;53.582;10.112;2022-12-16T09:29:46;101422.22;;;-1.31
69857;BMP280;57147;53.582;10.112;2022-12-16T09:34:50;101425.72;;;-1.45
69857;BMP280;57147;53.582;10.112;2022-12-16T09:39:51;101430.91;;;-1.45
69857;BMP280;57147;53.582;10.112;2022-12-16T09:44:57;101442.94;;;-1.23
69857;BMP280;57147;53.582;10.112;2022-12-16T09:50:04;101441.53;;;-1.19
69857;BMP280;57147;53.582;10.112;2022-12-16T09:55:16;101444.69;;;-1.02
69857;BMP280;57147;53.582;10.112;2022-12-16T10:00:23;101455.41;;;-1.12
69857;BMP280;57147;53.582;10.112;2022-12-16T10:05:34;101456.41;;;-1.13
69857;BMP280;57147;53.582;10.112;2022-12-16T10:10:47;101447.22;;;-1.09
69857;BMP280;57147;53.582;10.112;2022-12-16T10:15:54;101445.47;;;-1.02
69857;BMP280;57147;53.582;10.112;2022-12-16T10:20:58;101455.78;;;-0.94
69857;BMP280;57147;53.582;10.112;2022-12-16T10:26:01;101459.56;;;-0.96
69857;BMP280;57147;53.582;10.112;2022-12-16T10:31:11;101458.19;;;-0.86
69857;BMP280;57147;53.582;10.112;2022-12-16T10:36:17;101461.81;;;-0.87
69857;BMP280;57147;53.582;10.112;2022-12-16T10:41:21;101450.22;;;-0.77
69857;BMP280;57147;53.582;10.112;2022-12-16T10:46:25;101459.06;;;-0.78
69857;BMP280;57147;53.582;10.112;2022-12-16T10:51:30;101464.31;;;-0.72
69857;BMP280;57147;53.582;10.112;2022-12-16T10:56:46;101455.81;;;-0.80
69857;BMP280;57147;53.582;10.112;2022-12-16T11:01:55;101458.28;;;-0.72
69857;BMP280;57147;53.582;10.112;2022-12-16T11:06:59;101459.91;;;-0.71
69857;BMP280;57147;53.582;10.112;2022-12-16T11:12:21;101462.03;;;-0.54
69857;BMP280;57147;53.582;10.112;2022-12-16T11:17:23;101459.41;;;-0.54
69857;BMP280;57147;53.582;10.112;2022-12-16T11:22:27;101431.44;;;-0.66
69857;BMP280;57147;53.582;10.112;2022-12-16T11:27:27;101462.66;;;-0.45
69857;BMP280;57147;53.582;10.112;2022-12-16T11:32:28;101455.22;;;-0.48
69857;BMP280;57147;53.582;10.112;2022-12-16T11:37:32;101469.72;;;-0.39
69857;BMP280;57147;53.582;10.112;2022-12-16T11:42:33;101474.56;;;-0.29
69857;BMP280;57147;53.582;10.112;2022-12-16T11:47:38;101467.72;;;-0.37
69857;BMP280;57147;53.582;10.112;2022-12-16T11:52:49;101467.13;;;-0.32
69857;BMP280;57147;53.582;10.112;2022-12-16T11:57:56;101454.78;;;-0.58
69857;BMP280;57147;53.582;10.112;2022-12-16T12:03:04;101473.81;;;-0.16
69857;BMP280;57147;53.582;10.112;2022-12-16T12:08:12;101469.53;;;-0.31
69857;BMP280;57147;53.582;10.112;2022-12-16T12:13:24;101474.16;;;-0.33
69857;BMP280;57147;53.582;10.112;2022-12-16T12:18:34;101490.25;;;-0.23
69857;BMP280;57147;53.582;10.112;2022-12-16T12:23:47;101493.44;;;-0.27
69857;BMP280;57147;53.582;10.112;2022-12-16T12:28:57;101492.09;;;-0.16
69857;BMP280;57147;53.582;10.112;2022-12-16T12:34:04;101495.03;;;-0.33
69857;BMP280;57147;53.582;10.112;2022-12-16T12:39:16;101509.53;;;-0.24
69857;BMP280;57147;53.582;10.112;2022-12-16T12:44:27;101507.94;;;-0.18
69857;BMP280;57147;53.582;10.112;2022-12-16T12:49:38;101510.00;;;-0.07
69857;BMP280;57147;53.582;10.112;2022-12-16T12:54:48;101516.75;;;-0.26
69857;BMP280;57147;53.582;10.112;2022-12-16T12:59:54;101523.94;;;-0.28
69857;BMP280;57147;53.582;10.112;2022-12-16T13:04:57;101527.50;;;-0.42
69857;BMP280;57147;53.582;10.112;2022-12-16T13:10:32;101524.75;;;-0.34
69857;BMP280;57147;53.582;10.112;2022-12-16T13:15:34;101540.78;;;-0.37
69857;BMP280;57147;53.582;10.112;2022-12-16T13:20:36;101535.19;;;-0.27
69857;BMP280;57147;53.582;10.112;2022-12-16T13:25:46;101538.00;;;-0.29
69857;BMP280;57147;53.582;10.112;2022-12-16T13:30:59;101536.84;;;-0.54
69857;BMP280;57147;53.582;10.112;2022-12-16T13:36:02;101545.34;;;-0.73
69857;BMP280;57147;53.582;10.112;2022-12-16T13:46:45;101550.25;;;-0.85
69857;BMP280;57147;53.582;10.112;2022-12-16T13:51:59;101549.22;;;-0.91
69857;BMP280;57147;53.582;10.112;2022-12-16T13:57:03;101562.41;;;-0.99
69857;BMP280;57147;53.582;10.112;2022-12-16T14:02:20;101558.66;;;-1.11
69857;BMP280;57147;53.582;10.112;2022-12-16T14:07:24;101570.72;;;-1.10
69857;BMP280;57147;53.582;10.112;2022-12-16T14:12:47;101564.44;;;-1.15
69857;BMP280;57147;53.582;10.112;2022-12-16T14:17:54;101573.94;;;-1.08
69857;BMP280;57147;53.582;10.112;2022-12-16T14:22:59;101571.56;;;-1.03
69857;BMP280;57147;53.582;10.112;2022-12-16T14:28:18;101562.41;;;-1.20
69857;BMP280;57147;53.582;10.112;2022-12-16T14:33:22;101580.31;;;-1.10
69857;BMP280;57147;53.582;10.112;2022-12-16T14:38:25;101590.56;;;-1.30
69857;BMP280;57147;53.582;10.112;2022-12-16T14:43:29;101600.28;;;-1.54
69857;BMP280;57147;53.582;10.112;2022-12-16T14:48:33;101597.25;;;-1.72
69857;BMP280;57147;53.582;10.112;2022-12-16T14:53:35;101604.78;;;-1.77
69857;BMP280;57147;53.582;10.112;2022-12-16T14:58:38;101608.75;;;-1.81
69857;BMP280;57147;53.582;10.112;2022-12-16T15:03:41;101617.00;;;-1.92
69857;BMP280;57147;53.582;10.112;2022-12-16T15:08:47;101611.34;;;-2.25
69857;BMP280;57147;53.582;10.112;2022-12-16T15:13:55;101619.69;;;-2.30
69857;BMP280;57147;53.582;10.112;2022-12-16T15:18:58;101625.31;;;-2.41
69857;BMP280;57147;53.582;10.112;2022-12-16T15:23:59;101636.78;;;-2.58
69857;BMP280;57147;53.582;10.112;2022-12-16T15:29:03;101649.63;;;-2.57
69857;BMP280;57147;53.582;10.112;2022-12-16T15:34:31;101670.66;;;-2.66
69857;BMP280;57147;53.582;10.112;2022-12-16T15:39:35;101675.16;;;-2.60
69857;BMP280;57147;53.582;10.112;2022-12-16T15:44:46;101667.50;;;-2.54
69857;BMP280;57147;53.582;10.112;2022-12-16T15:49:48;101677.50;;;-2.42
69857;BMP280;57147;53.582;10.112;2022-12-16T15:54:51;101688.66;;;-2.34
69857;BMP280;57147;53.582;10.112;2022-12-16T15:59:58;101683.50;;;-2.42
69857;BMP280;57147;53.582;10.112;2022-12-16T16:04:59;101716.03;;;-2.46
69857;BMP280;57147;53.582;10.112;2022-12-16T16:10:10;101713.31;;;-2.53
69857;BMP280;57147;53.582;10.112;2022-12-16T16:15:16;101686.81;;;-2.56
69857;BMP280;57147;53.582;10.112;2022-12-16T16:20:17;101718.19;;;-2.49
69857;BMP280;57147;53.582;10.112;2022-12-16T16:25:18;101720.00;;;-2.58
69857;BMP280;57147;53.582;10.112;2022-12-16T16:30:21;101728.25;;;-2.55
69857;BMP280;57147;53.582;10.112;2022-12-16T16:35:22;101729.91;;;-2.54
69857;BMP280;57147;53.582;10.112;2022-12-16T16:40:28;101737.78;;;-2.70
69857;BMP280;57147;53.582;10.112;2022-12-16T16:45:32;101750.94;;;-2.71
69857;BMP280;57147;53.582;10.112;2022-12-16T16:50:33;101736.91;;;-2.62
69857;BMP280;57147;53.582;10.112;2022-12-16T16:55:33;101730.25;;;-2.65
69857;BMP280;57147;53.582;10.112;2022-12-16T17:00:36;101750.19;;;-2.49
69857;BMP280;57147;53.582;10.112;2022-12-16T17:05:37;101744.34;;;-2.51
69857;BMP280;57147;53.582;10.112;2022-12-16T17:10:38;101743.22;;;-2.57
69857;BMP280;57147;53.582;10.112;2022-12-16T17:15:41;101754.19;;;-2.69
69857;BMP280;57147;53.582;10.112;2022-12-16T17:20:42;101759.31;;;-2.53
69857;BMP280;57147;53.582;10.112;2022-12-16T17:25:42;101760.59;;;-2.49
69857;BMP280;57147;53.582;10.112;2022-12-16T17:30:45;101759.72;;;-2.72
69857;BMP280;57147;53.582;10.112;2022-12-16T17:35:48;101767.13;;;-2.61
69857;BMP280;57147;53.582;10.112;2022-12-16T17:40:50;101775.28;;;-2.64
69857;BMP280;57147;53.582;10.112;2022-12-16T17:45:58;101758.91;;;-2.73
69857;BMP280;57147;53.582;10.112;2022-12-16T17:51:01;101775.22;;;-2.87
69857;BMP280;57147;53.582;10.112;2022-12-16T17:56:03;101794.75;;;-2.60
69857;BMP280;57147;53.582;10.112;2022-12-16T18:01:06;101799.91;;;-2.44
69857;BMP280;57147;53.582;10.112;2022-12-16T18:06:07;101803.19;;;-2.58
69857;BMP280;57147;53.582;10.112;2022-12-16T18:11:07;101816.44;;;-2.37
69857;BMP280;57147;53.582;10.112;2022-12-16T18:16:10;101814.38;;;-2.19
69857;BMP280;57147;53.582;10.112;2022-12-16T18:21:12;101820.94;;;-2.31
69857;BMP280;57147;53.582;10.112;2022-12-16T18:26:13;101815.50;;;-2.44
69857;BMP280;57147;53.582;10.112;2022-12-16T18:31:16;101830.66;;;-2.25
69857;BMP280;57147;53.582;10.112;2022-12-16T18:36:16;101821.78;;;-2.07
69857;BMP280;57147;53.582;10.112;2022-12-16T18:41:18;101822.03;;;-2.02
69857;BMP280;57147;53.582;10.112;2022-12-16T18:46:21;101809.38;;;-2.05
69857;BMP280;57147;53.582;10.112;2022-12-16T18:51:22;101843.94;;;-2.11
69857;BMP280;57147;53.582;10.112;2022-12-16T18:56:23;101844.09;;;-1.90
69857;BMP280;57147;53.582;10.112;2022-12-16T19:01:26;101841.06;;;-2.02
69857;BMP280;57147;53.582;10.112;2022-12-16T19:06:27;101851.59;;;-2.18
69857;BMP280;57147;53.582;10.112;2022-12-16T19:11:27;101867.91;;;-2.01
69857;BMP280;57147;53.582;10.112;2022-12-16T19:16:30;101867.09;;;-1.79
69857;BMP280;57147;53.582;10.112;2022-12-16T19:21:31;101862.88;;;-1.80
69857;BMP280;57147;53.582;10.112;2022-12-16T19:26:32;101861.09;;;-1.79
69857;BMP280;57147;53.582;10.112;2022-12-16T19:31:35;101864.16;;;-1.76
69857;BMP280;57147;53.582;10.112;2022-12-16T19:36:35;101875.22;;;-1.74
69857;BMP280;57147;53.582;10.112;2022-12-16T19:41:36;101870.09;;;-1.67
69857;BMP280;57147;53.582;10.112;2022-12-16T19:46:39;101877.81;;;-1.74
69857;BMP280;57147;53.582;10.112;2022-12-16T19:51:40;101884.88;;;-1.60
69857;BMP280;57147;53.582;10.112;2022-12-16T19:56:40;101884.56;;;-1.65
69857;BMP280;57147;53.582;10.112;2022-12-16T20:01:44;101891.75;;;-1.67
69857;BMP280;57147;53.582;10.112;2022-12-16T20:06:44;101891.50;;;-1.57
69857;BMP280;57147;53.582;10.112;2022-12-16T20:11:45;101898.56;;;-1.66
69857;BMP280;57147;53.582;10.112;2022-12-16T20:16:48;101901.13;;;-1.58
69857;BMP280;57147;53.582;10.112;2022-12-16T20:21:49;101912.25;;;-1.64
69857;BMP280;57147;53.582;10.112;2022-12-16T20:26:49;101902.41;;;-1.54
69857;BMP280;57147;53.582;10.112;2022-12-16T20:31:53;101915.78;;;-1.57
69857;BMP280;57147;53.582;10.112;2022-12-16T20:36:53;101872.19;;;-1.86
69857;BMP280;57147;53.582;10.112;2022-12-16T20:41:54;101918.44;;;-1.65
69857;BMP280;57147;53.582;10.112;2022-12-16T20:46:57;101926.25;;;-1.65
69857;BMP280;57147;53.582;10.112;2022-12-16T20:51:57;101948.19;;;-1.59
69857;BMP280;57147;53.582;10.112;2022-12-16T20:56:58;101919.06;;;-1.63
69857;BMP280;57147;53.582;10.112;2022-12-16T21:02:01;101956.44;;;-1.47
69857;BMP280;57147;53.582;10.112;2022-12-16T21:07:02;101940.53;;;-1.61
69857;BMP280;57147;53.582;10.112;2022-12-16T21:12:03;101949.91;;;-1.74
69857;BMP280;57147;53.582;10.112;2022-12-16T21:17:06;101950.59;;;-1.80
69857;BMP280;57147;53.582;10.112;2022-12-16T21:22:07;101948.91;;;-1.73
69857;BMP280;57147;53.582;10.112;2022-12-16T21:27:07;101953.44;;;-1.67
69857;BMP280;57147;53.582;10.112;2022-12-16T21:32:11;101965.72;;;-1.53
69857;BMP280;57147;53.582;10.112;2022-12-16T21:37:11;101959.59;;;-1.60
69857;BMP280;57147;53.582;10.112;2022-12-16T21:42:12;101964.25;;;-1.47
69857;BMP280;57147;53.582;10.112;2022-12-16T21:47:15;101971.44;;;-1.49
69857;BMP280;57147;53.582;10.112;2022-12-16T21:52:15;101980.28;;;-1.67
69857;BMP280;57147;53.582;10.112;2022-12-16T21:57:16;101985.66;;;-1.68
69857;BMP280;57147;53.582;10.112;2022-12-16T22:02:19;101976.78;;;-1.82
69857;BMP280;57147;53.582;10.112;2022-12-16T22:07:20;101989.88;;;-1.98
69857;BMP280;57147;53.582;10.112;2022-12-16T22:12:21;101980.06;;;-2.19
69857;BMP280;57147;53.582;10.112;2022-12-16T22:17:24;101977.19;;;-2.32
69857;BMP280;57147;53.582;10.112;2022-12-16T22:22:24;101980.00;;;-2.50
69857;BMP280;57147;53.582;10.112;2022-12-16T22:27:25;101992.03;;;-2.73
69857;BMP280;57147;53.582;10.112;2022-12-16T22:32:28;101978.75;;;-2.87
69857;BMP280;57147;53.582;10.112;2022-12-16T22:37:29;101995.78;;;-2.84
69857;BMP280;57147;53.582;10.112;2022-12-16T22:42:30;102010.94;;;-2.96
69857;BMP280;57147;53.582;10.112;2022-12-16T22:47:33;102005.38;;;-3.09
69857;BMP280;57147;53.582;10.112;2022-12-16T22:52:34;102011.22;;;-3.23
69857;BMP280;57147;53.582;10.112;2022-12-16T22:57:34;102004.72;;;-3.35
69857;BMP280;57147;53.582;10.112;2022-12-16T23:02:38;102005.66;;;-3.44
69857;BMP280;57147;53.582;10.112;2022-12-16T23:07:38;102008.19;;;-3.61
69857;BMP280;57147;53.582;10.112;2022-12-16T23:12:39;102005.41;;;-3.67
69857;BMP280;57147;53.582;10.112;2022-12-16T23:17:42;102007.34;;;-3.69
69857;BMP280;57147;53.582;10.112;2022-12-16T23:22:43;101994.97;;;-3.92
69857;BMP280;57147;53.582;10.112;2022-12-16T23:27:43;102010.72;;;-3.85
69857;BMP280;57147;53.582;10.112;2022-12-16T23:32:46;102011.91;;;-3.71
69857;BMP280;57147;53.582;10.112;2022-12-16T23:37:47;102021.81;;;-3.59
69857;BMP280;57147;53.582;10.112;2022-12-16T23:42:47;102017.84;;;-3.45
69857;BMP280;57147;53.582;10.112;2022-12-16T23:47:58;102018.66;;;-3.44
69857;BMP280;57147;53.582;10.112;2022-12-16T23:53:03;102022.88;;;-3.35
69857;BMP280;57147;53.582;10.112;2022-12-16T23:58:04;102024.97;;;-3.47
